createdAt,value
2023-08-12T00:04:58.546Z,4.00
2023-08-12T00:10:04.585Z,3.90
2023-08-12T00:15:09.571Z,3.80
2023-08-12T00:20:13.705Z,3.60
2023-08-12T00:25:17.122Z,3.80
2023-08-12T00:30:20.110Z,4.10
2023-08-12T00:35:23.191Z,4.10
2023-08-12T00:40:27.737Z,4.00
2023-08-12T00:45:30.719Z,3.70
2023-08-12T00:50:33.579Z,3.70
2023-08-12T00:55:36.504Z,3.70
2023-08-12T01:00:39.468Z,4.10
2023-08-12T01:05:42.926Z,3.80
2023-08-12T01:10:52.735Z,3.70
2023-08-12T01:15:57.153Z,4.00
2023-08-12T01:21:00.322Z,3.60
2023-08-12T01:26:03.286Z,3.80
2023-08-12T01:31:44.498Z,3.60
2023-08-12T01:36:50.374Z,3.80
2023-08-12T01:41:53.342Z,4.00
2023-08-12T01:46:56.294Z,3.80
2023-08-12T01:51:59.201Z,3.90
2023-08-12T01:57:06.801Z,3.80
2023-08-12T02:02:09.776Z,3.40
2023-08-12T02:07:13.075Z,3.60
2023-08-12T02:12:16.497Z,3.90
2023-08-12T02:17:19.338Z,3.80
2023-08-12T02:22:23.563Z,4.10
2023-08-12T02:27:26.443Z,4.30
2023-08-12T02:32:29.438Z,3.80
2023-08-12T02:37:32.281Z,4.30
2023-08-12T02:42:35.193Z,4.20
2023-08-12T02:47:38.363Z,4.00
2023-08-12T02:52:41.242Z,3.70
2023-08-12T02:57:44.218Z,4.40
2023-08-12T03:02:47.289Z,4.10
2023-08-12T03:07:52.822Z,4.40
2023-08-12T03:12:55.951Z,3.80
2023-08-12T03:17:58.884Z,4.40
2023-08-12T03:23:02.041Z,4.60
2023-08-12T03:28:05.250Z,4.00
2023-08-12T03:33:08.183Z,4.80
2023-08-12T03:38:12.096Z,5.10
2023-08-12T03:43:15.557Z,5.40
2023-08-12T03:48:18.460Z,5.00
2023-08-12T03:53:21.389Z,4.60
2023-08-12T03:58:24.271Z,4.50
2023-08-12T04:03:27.399Z,4.90
2023-08-12T04:08:30.524Z,5.10
2023-08-12T04:13:33.537Z,5.50
2023-08-12T04:18:36.592Z,5.70
2023-08-12T04:23:39.662Z,5.40
2023-08-12T04:28:42.520Z,5.70
2023-08-12T04:33:45.369Z,6.10
2023-08-12T04:38:48.382Z,6.90
2023-08-12T04:43:51.589Z,6.80
2023-08-12T04:48:54.436Z,6.50
2023-08-12T04:53:57.442Z,6.80
2023-08-12T04:59:00.256Z,6.40
2023-08-12T05:04:03.308Z,6.30
2023-08-12T05:09:06.974Z,6.80
2023-08-12T05:14:10.346Z,7.10
2023-08-12T05:19:13.297Z,6.70
2023-08-12T05:24:16.465Z,6.00
2023-08-12T05:29:19.324Z,5.80
2023-08-12T05:34:22.183Z,5.90
2023-08-12T05:39:25.239Z,5.70
2023-08-12T05:44:28.152Z,5.30
2023-08-12T05:49:30.976Z,5.10
2023-08-12T05:54:33.925Z,4.60
2023-08-12T05:59:36.871Z,4.80
2023-08-12T06:04:39.792Z,5.00
2023-08-12T06:09:42.734Z,4.30
2023-08-12T06:14:45.630Z,4.70
2023-08-12T06:19:48.632Z,4.00
2023-08-12T06:24:51.696Z,3.50
2023-08-12T06:29:54.608Z,3.30
2023-08-12T06:34:58.252Z,4.10
2023-08-12T06:40:01.297Z,3.60
2023-08-12T06:45:05.323Z,2.90
2023-08-12T06:50:09.453Z,3.00
2023-08-12T06:55:12.769Z,3.40
2023-08-12T07:00:16.346Z,3.30
2023-08-12T07:05:20.014Z,2.70
2023-08-12T07:10:24.217Z,2.30
2023-08-12T07:15:30.673Z,2.60
2023-08-12T07:20:34.248Z,2.30
2023-08-12T07:25:37.608Z,2.10
2023-08-12T07:30:40.625Z,2.40
2023-08-12T07:35:43.846Z,1.80
2023-08-12T07:40:51.038Z,1.60
2023-08-12T07:46:07.716Z,1.20
2023-08-12T07:51:13.894Z,1.10
2023-08-12T07:56:16.994Z,1.40
2023-08-12T08:01:21.766Z,1.60
2023-08-12T08:06:30.121Z,1.50
2023-08-12T08:11:35.963Z,1.30
2023-08-12T08:16:43.055Z,1.20
2023-08-12T08:21:46.680Z,1.30
2023-08-12T08:26:50.505Z,1.60
2023-08-12T08:31:53.491Z,1.30
2023-08-12T08:36:56.735Z,1.30
2023-08-12T08:41:59.893Z,1.40
2023-08-12T08:47:04.407Z,1.40
2023-08-12T08:52:07.888Z,1.40
2023-08-12T08:57:14.347Z,1.40
2023-08-12T09:02:20.804Z,1.40
2023-08-12T09:07:24.025Z,1.30
2023-08-12T09:12:27.138Z,1.40
2023-08-12T09:17:30.565Z,1.60
2023-08-12T09:22:33.559Z,1.30
2023-08-12T09:27:37.962Z,1.40
2023-08-12T09:32:41.313Z,1.20
2023-08-12T09:37:44.278Z,1.30
2023-08-12T09:42:47.797Z,1.40
2023-08-12T09:47:55.437Z,1.20
2023-08-12T09:52:58.632Z,1.20
2023-08-12T09:58:02.799Z,1.50
2023-08-12T10:03:06.677Z,1.50
2023-08-12T10:08:11.079Z,1.60
2023-08-12T10:13:14.040Z,1.40
2023-08-12T10:18:17.172Z,1.40
2023-08-12T10:23:20.113Z,1.20
2023-08-12T10:28:23.268Z,1.50
2023-08-12T10:33:28.307Z,1.40
2023-08-12T10:38:34.801Z,1.60
2023-08-12T10:43:56.569Z,1.20
2023-08-12T10:49:06.893Z,1.60
2023-08-12T10:54:19.474Z,1.50
2023-08-12T10:59:47.423Z,1.30
2023-08-12T11:04:58.275Z,1.30
2023-08-12T11:10:27.798Z,1.30
2023-08-12T11:15:36.204Z,1.20
2023-08-12T11:20:39.614Z,1.40
2023-08-12T11:25:45.218Z,1.30
2023-08-12T11:30:48.201Z,1.10
2023-08-12T11:35:51.432Z,1.30
2023-08-12T11:40:54.332Z,1.30
2023-08-12T11:45:57.650Z,1.40
2023-08-12T11:51:00.595Z,1.30
2023-08-12T11:56:04.637Z,1.20
2023-08-12T12:01:07.570Z,1.40
2023-08-12T12:06:10.518Z,1.40
2023-08-12T12:11:14.882Z,1.20
2023-08-12T12:16:17.810Z,1.40
2023-08-12T12:21:24.243Z,1.90
2023-08-12T12:26:27.560Z,1.10
2023-08-12T12:31:30.621Z,1.50
2023-08-12T12:36:37.465Z,1.40
2023-08-12T12:41:40.555Z,1.30
2023-08-12T12:46:44.830Z,1.50
2023-08-12T12:51:50.529Z,1.50
2023-08-12T12:56:58.085Z,1.40
2023-08-12T13:02:01.860Z,1.40
2023-08-12T13:07:04.934Z,1.60
2023-08-12T13:12:08.354Z,1.60
2023-08-12T13:17:14.375Z,1.50
2023-08-12T13:22:17.585Z,1.50
2023-08-12T13:27:26.101Z,1.50
2023-08-12T13:32:29.563Z,1.50
2023-08-12T13:37:34.944Z,1.40
2023-08-12T13:42:39.791Z,1.80
2023-08-12T13:47:44.230Z,1.50
2023-08-12T13:52:48.437Z,1.50
2023-08-12T13:57:54.565Z,1.80
2023-08-12T14:02:57.822Z,1.70
2023-08-12T14:08:01.504Z,1.80
2023-08-12T14:13:05.411Z,1.70
2023-08-12T14:18:09.448Z,1.60
2023-08-12T14:23:12.512Z,1.60
2023-08-12T14:28:19.047Z,1.60
2023-08-12T14:33:24.395Z,1.70
2023-08-12T14:38:27.315Z,1.70
2023-08-12T14:43:30.189Z,1.50
2023-08-12T14:48:33.267Z,1.50
2023-08-12T14:53:36.836Z,1.30
2023-08-12T14:58:39.760Z,1.50
2023-08-12T15:03:43.072Z,1.60
2023-08-12T15:08:46.223Z,1.60
2023-08-12T15:13:49.288Z,1.20
2023-08-12T15:18:52.204Z,1.50
2023-08-12T15:23:55.180Z,1.40
2023-08-12T15:28:58.036Z,1.50
2023-08-12T15:34:01.064Z,1.80
2023-08-12T15:39:05.282Z,1.20
2023-08-12T15:44:12.393Z,1.30
2023-08-12T15:49:16.018Z,1.30
2023-08-12T15:54:19.503Z,1.80
2023-08-12T15:59:27.399Z,1.70
2023-08-12T16:04:30.770Z,1.80
2023-08-12T16:09:33.783Z,1.60
2023-08-12T16:14:38.530Z,1.40
2023-08-12T16:19:46.382Z,1.50
2023-08-12T16:24:49.810Z,1.40
2023-08-12T16:30:10.092Z,1.70
2023-08-12T16:35:13.728Z,1.60
2023-08-12T16:40:16.769Z,1.50
2023-08-12T16:45:19.819Z,1.70
2023-08-12T16:50:22.747Z,1.40
2023-08-12T16:55:25.690Z,1.90
2023-08-12T17:00:28.797Z,1.70
2023-08-12T17:05:34.864Z,1.80
2023-08-12T17:10:42.374Z,2.80
2023-08-12T17:15:47.332Z,2.80
2023-08-12T17:20:50.487Z,2.20
2023-08-12T17:25:54.470Z,1.80
2023-08-12T17:30:57.831Z,1.60
2023-08-12T17:36:00.837Z,1.70
2023-08-12T17:41:04.007Z,2.10
2023-08-12T17:46:10.856Z,2.10
2023-08-12T17:51:16.172Z,2.20
2023-08-12T17:56:19.518Z,2.20
2023-08-12T18:01:23.220Z,2.10
2023-08-12T18:06:26.328Z,2.30
2023-08-12T18:11:29.344Z,2.30
2023-08-12T18:16:34.624Z,2.10
2023-08-12T18:21:37.881Z,2.30
2023-08-12T18:26:40.867Z,2.40
2023-08-12T18:31:43.813Z,2.60
2023-08-12T18:36:46.738Z,2.20
2023-08-12T18:41:50.443Z,2.70
2023-08-12T18:46:53.308Z,3.00
2023-08-12T18:51:56.314Z,2.70
2023-08-12T18:56:59.137Z,2.80
2023-08-12T19:02:02.027Z,2.70
2023-08-12T19:07:05.524Z,3.30
2023-08-12T19:12:10.632Z,3.20
2023-08-12T19:17:13.934Z,2.90
2023-08-12T19:22:16.860Z,3.00
2023-08-12T19:27:19.880Z,3.00
2023-08-12T19:32:22.853Z,3.10
2023-08-12T19:37:26.432Z,2.70
2023-08-12T19:42:29.794Z,3.00
2023-08-12T19:47:40.732Z,2.60
2023-08-12T19:52:44.285Z,2.50
2023-08-12T19:57:49.471Z,2.90
2023-08-12T20:02:53.845Z,3.50
2023-08-12T20:07:58.254Z,3.70
2023-08-12T20:13:03.632Z,3.60
2023-08-12T20:18:06.754Z,3.60
2023-08-12T20:23:12.025Z,4.50
2023-08-12T20:28:20.014Z,3.50
2023-08-12T20:33:23.502Z,5.00
2023-08-12T20:38:26.636Z,5.30
2023-08-12T20:43:29.515Z,5.00
2023-08-12T20:48:33.208Z,5.70
2023-08-12T20:53:36.036Z,5.60
2023-08-12T20:58:38.873Z,5.30
2023-08-12T21:03:41.932Z,5.70
2023-08-12T21:08:45.027Z,5.10
2023-08-12T21:13:47.945Z,5.40
2023-08-12T21:18:50.789Z,4.70
2023-08-12T21:23:53.698Z,4.80
2023-08-12T21:28:56.592Z,5.20
2023-08-12T21:33:59.557Z,5.00
2023-08-12T21:39:05.406Z,4.90
2023-08-12T21:44:08.374Z,5.20
2023-08-12T21:49:11.513Z,5.20
2023-08-12T21:54:14.668Z,5.20
2023-08-12T21:59:18.132Z,5.30
2023-08-12T22:04:21.158Z,5.20
2023-08-12T22:09:30.300Z,6.20
2023-08-12T22:14:33.708Z,5.70
2023-08-12T22:19:36.688Z,6.50
2023-08-12T22:24:39.890Z,6.60
2023-08-12T22:29:42.850Z,6.70
2023-08-12T22:34:45.840Z,6.80
2023-08-12T22:39:48.742Z,6.60
2023-08-12T22:44:51.665Z,7.00
2023-08-12T22:49:54.851Z,7.80
2023-08-12T22:54:58.924Z,7.90
2023-08-12T23:00:01.965Z,8.40
2023-08-12T23:05:05.396Z,8.60
2023-08-12T23:10:09.753Z,8.60
2023-08-12T23:15:12.777Z,8.50
2023-08-12T23:20:15.703Z,8.50
2023-08-12T23:25:18.849Z,9.00
2023-08-12T23:30:22.190Z,9.20
2023-08-12T23:35:25.168Z,9.20
2023-08-12T23:40:28.282Z,8.30
2023-08-12T23:45:31.495Z,9.50
2023-08-12T23:50:34.504Z,9.00
2023-08-12T23:55:37.462Z,9.20
